createdAt,value
2018-09-04T00:07:52.889Z,16.20
2018-09-04T00:17:54.171Z,16.20
2018-09-04T00:27:55.575Z,16.10
2018-09-04T00:37:57.596Z,16.10
2018-09-04T00:47:59.751Z,16.00
2018-09-04T00:58:01.035Z,16.00
2018-09-04T01:08:02.323Z,16.00
2018-09-04T01:18:03.628Z,16.00
2018-09-04T01:28:04.882Z,15.90
2018-09-04T01:38:07.089Z,15.90
2018-09-04T01:48:08.370Z,15.80
2018-09-04T01:58:09.631Z,15.90
2018-09-04T02:08:10.891Z,15.90
2018-09-04T02:18:12.191Z,15.90
2018-09-04T02:28:13.456Z,15.80
2018-09-04T02:38:14.746Z,15.80
2018-09-04T02:48:16.010Z,15.80
2018-09-04T02:58:17.344Z,15.70
2018-09-04T03:08:18.615Z,15.60
2018-09-04T03:18:20.104Z,15.50
2018-09-04T03:28:21.387Z,15.50
2018-09-04T03:38:22.687Z,15.60
2018-09-04T03:48:23.981Z,15.60
2018-09-04T03:58:25.252Z,15.70
2018-09-04T04:08:26.511Z,15.90
2018-09-04T04:18:27.763Z,16.00
2018-09-04T04:28:29.021Z,16.00
2018-09-04T04:38:30.272Z,16.00
2018-09-04T04:48:31.541Z,16.00
2018-09-04T04:58:33.601Z,16.20
2018-09-04T05:08:34.871Z,16.20
2018-09-04T05:18:37.652Z,16.40
2018-09-04T05:28:39.046Z,16.40
2018-09-04T05:38:40.308Z,16.50
2018-09-04T05:48:41.637Z,16.60
2018-09-04T05:58:42.869Z,16.80
2018-09-04T06:08:44.122Z,16.90
2018-09-04T06:18:45.366Z,17.10
2018-09-04T06:28:46.616Z,17.20
2018-09-04T06:38:47.885Z,17.50
2018-09-04T06:48:51.472Z,17.90
2018-09-04T06:58:52.911Z,18.20
2018-09-04T07:08:54.191Z,18.10
2018-09-04T07:18:55.442Z,18.60
2018-09-04T07:28:56.750Z,18.90
2018-09-04T07:38:58.007Z,19.50
2018-09-04T07:49:00.023Z,19.30
2018-09-04T07:59:02.058Z,19.00
2018-09-04T08:09:03.303Z,19.00
2018-09-04T08:19:04.538Z,19.10
2018-09-04T08:29:07.626Z,19.90
2018-09-04T08:39:09.162Z,19.80
2018-09-04T08:59:18.476Z,20.90
2018-09-04T09:09:20.387Z,21.70
2018-09-04T09:19:21.752Z,21.50
2018-09-04T09:29:23.010Z,20.70
2018-09-04T09:39:24.279Z,20.50
2018-09-04T09:59:32.124Z,21.20
2018-09-04T10:09:33.368Z,21.60
2018-09-04T10:19:34.643Z,21.70
2018-09-04T10:29:35.937Z,21.90
2018-09-04T10:39:37.198Z,22.80
2018-09-04T10:49:39.426Z,22.40
2018-09-04T10:59:41.539Z,22.90
2018-09-04T11:09:42.986Z,22.80
2018-09-04T11:19:44.132Z,23.80
2018-09-04T11:29:46.213Z,23.10
2018-09-04T11:39:47.443Z,23.10
2018-09-04T11:49:53.824Z,22.10
2018-09-04T11:59:55.918Z,23.50
2018-09-04T12:09:57.217Z,23.50
2018-09-04T12:19:59.405Z,23.50
2018-09-04T12:30:02.387Z,23.20
2018-09-04T12:40:03.690Z,23.20
2018-09-04T12:50:05.131Z,22.90
2018-09-04T13:00:06.590Z,22.90
2018-09-04T13:10:07.901Z,23.10
2018-09-04T13:20:09.150Z,23.00
2018-09-04T13:30:11.160Z,23.50
2018-09-04T13:40:15.922Z,23.50
2018-09-04T13:50:18.094Z,24.10
2018-09-04T14:00:19.411Z,24.30
2018-09-04T14:10:21.443Z,23.60
2018-09-04T14:20:23.250Z,23.60
2018-09-04T14:30:24.706Z,23.40
2018-09-04T14:40:27.423Z,22.50
2018-09-04T14:50:28.723Z,22.50
2018-09-04T15:00:30.008Z,22.70
2018-09-04T15:10:31.354Z,22.80
2018-09-04T15:20:33.374Z,22.20
2018-09-04T15:30:34.670Z,22.20
2018-09-04T15:40:36.048Z,22.10
2018-09-04T15:50:38.063Z,21.60
2018-09-04T16:00:39.354Z,21.50
2018-09-04T16:10:40.642Z,21.50
2018-09-04T16:20:41.942Z,21.30
2018-09-04T16:30:43.330Z,21.00
2018-09-04T16:40:44.762Z,20.70
2018-09-04T16:50:46.806Z,20.00
2018-09-04T17:00:48.060Z,19.90
2018-09-04T17:10:50.242Z,19.50
2018-09-04T17:20:52.569Z,19.40
2018-09-04T17:30:53.835Z,19.30
2018-09-04T17:40:55.095Z,19.10
2018-09-04T17:50:57.132Z,18.80
2018-09-04T18:00:58.444Z,18.80
2018-09-04T18:10:59.898Z,18.70
2018-09-04T18:21:01.936Z,18.50
2018-09-04T18:31:03.347Z,18.40
2018-09-04T18:41:04.624Z,18.40
2018-09-04T18:51:05.905Z,18.30
2018-09-04T19:01:07.926Z,18.40
2018-09-04T19:11:09.206Z,18.30
2018-09-04T19:21:11.255Z,18.20
2018-09-04T19:31:12.510Z,18.20
2018-09-04T19:41:13.774Z,18.20
2018-09-04T19:51:15.064Z,18.00
2018-09-04T20:11:23.679Z,17.60
2018-09-04T20:21:24.975Z,17.50
2018-09-04T20:31:26.416Z,17.40
2018-09-04T20:41:27.683Z,17.40
2018-09-04T20:51:28.977Z,17.30
2018-09-04T21:01:30.388Z,17.30
2018-09-04T21:11:31.651Z,17.50
2018-09-04T21:21:32.900Z,17.70
2018-09-04T21:31:34.180Z,17.60
2018-09-04T21:41:35.399Z,17.70
2018-09-04T21:51:36.784Z,17.70
2018-09-04T22:01:38.066Z,17.70
2018-09-04T22:11:39.362Z,17.60
2018-09-04T22:21:40.786Z,17.60
2018-09-04T22:31:42.052Z,17.50
2018-09-04T22:41:43.342Z,17.50
2018-09-04T22:51:44.581Z,17.50
2018-09-04T23:01:45.835Z,17.40
2018-09-04T23:11:47.134Z,17.30
2018-09-04T23:21:48.448Z,17.20
2018-09-04T23:31:49.693Z,17.00
2018-09-04T23:41:50.974Z,17.10
2018-09-04T23:51:52.230Z,17.00
